createdAt,value
2023-03-05T06:02:50.335Z,7.40
2023-03-05T06:07:52.756Z,8.90
2023-03-05T06:12:54.532Z,9.00
2023-03-05T06:17:58.023Z,11.90
2023-03-05T06:28:01.398Z,8.20
2023-03-05T06:33:03.301Z,6.90
2023-03-05T06:38:06.472Z,7.20
2023-03-05T06:43:08.353Z,8.20
2023-03-05T06:48:11.254Z,5.90
2023-03-05T06:53:12.922Z,7.20
2023-03-05T06:58:14.602Z,5.50
2023-03-05T07:03:16.999Z,4.50
2023-03-05T07:08:18.861Z,8.60
2023-03-05T07:13:20.634Z,6.40
2023-03-05T07:18:22.514Z,4.40
2023-03-05T07:23:24.287Z,3.60
2023-03-05T07:38:33.203Z,3.40
2023-03-05T07:43:35.991Z,3.10
2023-03-05T07:48:38.277Z,4.40
2023-03-05T07:53:40.562Z,3.50
2023-03-05T07:58:42.544Z,3.70
2023-03-05T08:03:45.074Z,3.50
2023-03-05T08:08:47.014Z,2.20
2023-03-05T08:13:49.208Z,3.80
2023-03-05T08:18:55.426Z,3.00
2023-03-05T08:23:57.964Z,4.20
2023-03-05T08:29:00.251Z,2.80
2023-03-05T08:34:03.151Z,2.50
2023-03-05T08:39:06.460Z,3.60
2023-03-05T08:44:08.750Z,2.60
2023-03-05T08:49:10.646Z,3.10
2023-03-05T08:54:12.816Z,3.10
2023-03-05T08:59:14.697Z,3.20
2023-03-05T09:04:17.177Z,2.90
2023-03-05T09:09:21.204Z,3.50
2023-03-05T09:14:23.756Z,2.70
2023-03-05T09:19:30.132Z,2.20
2023-03-05T09:24:32.435Z,2.60
2023-03-05T09:29:34.868Z,5.60
2023-03-05T09:34:37.546Z,2.80
2023-03-05T09:39:40.036Z,3.10
2023-03-05T09:45:11.100Z,2.50
2023-03-05T09:50:45.645Z,2.90
2023-03-05T09:55:58.374Z,2.00
2023-03-05T10:06:15.144Z,2.60
2023-03-05T10:11:37.800Z,2.00
2023-03-05T10:17:10.086Z,1.80
2023-03-05T10:22:24.852Z,2.90
2023-03-05T10:27:42.166Z,3.00
2023-03-05T10:33:12.236Z,7.50
2023-03-05T10:38:24.294Z,6.80
2023-03-05T10:43:47.754Z,3.40
2023-03-05T10:48:53.101Z,4.40
2023-03-05T10:54:20.473Z,3.10
2023-03-05T10:59:22.756Z,20.70
2023-03-05T11:04:29.459Z,2.70
2023-03-05T11:09:33.980Z,3.40
2023-03-05T11:14:39.523Z,2.10
2023-03-05T11:19:41.343Z,3.40
2023-03-05T11:24:46.222Z,5.60
2023-03-05T11:29:50.482Z,2.00
2023-03-05T11:34:54.219Z,2.60
2023-03-05T11:40:19.752Z,1.90
2023-03-05T11:45:24.387Z,52.90
2023-03-05T11:50:32.277Z,4.20
2023-03-05T11:55:47.501Z,4.10
2023-03-05T12:00:53.678Z,4.20
2023-03-05T12:06:23.066Z,3.10
2023-03-05T12:11:30.833Z,3.80
2023-03-05T12:16:45.698Z,2.00
2023-03-05T12:21:50.852Z,6.50
2023-03-05T12:26:52.831Z,92.20
2023-03-05T12:31:55.429Z,14.90
2023-03-05T12:36:57.197Z,11.40
2023-03-05T12:41:59.177Z,12.70
2023-03-05T12:47:18.898Z,7.70
2023-03-05T12:52:25.478Z,5.10
2023-03-05T12:57:31.310Z,5.50
2023-03-05T13:02:42.727Z,16.80
2023-03-05T13:07:45.213Z,8.50
2023-03-05T13:12:54.181Z,4.90
2023-03-05T13:18:07.664Z,7.30
2023-03-05T13:23:23.308Z,9.30
2023-03-05T13:28:26.635Z,8.80
2023-03-05T13:38:46.903Z,7.40
2023-03-05T13:43:50.790Z,13.90
2023-03-05T13:48:52.801Z,6.10
2023-03-05T13:53:55.756Z,4.20
2023-03-05T13:58:59.214Z,6.90
2023-03-05T14:04:04.431Z,14.70
2023-03-05T14:09:17.665Z,6.10
2023-03-05T14:14:21.452Z,17.60
2023-03-05T14:19:36.571Z,9.90
2023-03-05T14:24:38.367Z,10.90
2023-03-05T14:29:46.268Z,16.00
2023-03-05T14:34:55.413Z,19.80
2023-03-05T14:40:07.454Z,4.60
2023-03-05T14:45:21.165Z,9.80
2023-03-05T14:50:28.702Z,11.30
2023-03-05T14:55:33.223Z,21.70
2023-03-05T15:00:39.421Z,17.10
2023-03-05T15:05:43.319Z,47.50
2023-03-05T15:10:45.423Z,33.50
2023-03-05T15:15:49.112Z,18.40
2023-03-05T15:20:53.010Z,7.70
2023-03-05T15:25:55.810Z,38.60
2023-03-05T15:30:59.766Z,20.40
2023-03-05T15:36:03.615Z,8.10
2023-03-05T15:41:07.017Z,5.60
2023-03-05T15:46:09.058Z,5.10
2023-03-05T15:51:11.278Z,409.10
2023-03-05T15:56:18.599Z,1999.90
2023-03-05T16:01:23.170Z,642.60
2023-03-05T16:06:26.347Z,488.60
2023-03-05T16:11:30.081Z,118.70
2023-03-05T16:16:34.396Z,68.10
2023-03-05T16:21:37.296Z,122.00
2023-03-05T16:26:41.836Z,34.40
2023-03-05T16:31:45.003Z,28.50
2023-03-05T16:36:52.723Z,29.90
2023-03-05T16:41:55.149Z,23.80
2023-03-05T16:46:57.124Z,52.30
2023-03-05T16:52:01.334Z,33.30
2023-03-05T16:57:08.991Z,15.40
2023-03-05T17:02:13.026Z,25.90
2023-03-05T17:07:16.718Z,54.50
2023-03-05T17:12:20.236Z,22.30
2023-03-05T17:17:22.308Z,30.10
2023-03-05T17:22:24.422Z,20.40
2023-03-05T17:27:27.501Z,14.00
2023-03-05T17:32:29.700Z,19.00
2023-03-05T17:37:31.767Z,123.40
2023-03-05T17:42:33.437Z,21.40
2023-03-05T17:47:37.877Z,17.10
2023-03-05T17:52:41.617Z,24.60
2023-03-05T18:02:47.884Z,13.80
2023-03-05T18:07:52.550Z,15.20
2023-03-05T18:12:55.452Z,15.80
2023-03-05T18:17:58.688Z,43.90
2023-03-05T18:23:04.274Z,218.70
2023-03-05T18:28:13.010Z,1966.80
2023-03-05T18:33:23.810Z,1213.30
2023-03-05T18:38:28.164Z,1196.60
2023-03-05T18:43:29.986Z,728.70
2023-03-05T18:48:32.036Z,715.70
2023-03-05T18:53:34.008Z,1061.30
2023-03-05T18:58:37.669Z,935.40
2023-03-05T19:03:40.221Z,1068.20
2023-03-05T19:08:42.816Z,483.90
2023-03-05T19:13:50.300Z,783.20
2023-03-05T19:19:19.341Z,833.70
2023-03-05T19:24:25.349Z,1284.40
2023-03-05T19:29:32.522Z,449.50
2023-03-05T19:34:35.523Z,636.70
2023-03-05T19:39:37.814Z,625.00
2023-03-05T19:44:40.298Z,289.30
2023-03-05T19:49:42.680Z,339.20
2023-03-05T19:54:44.863Z,595.80
2023-03-05T19:59:47.048Z,761.80
2023-03-05T20:04:51.807Z,426.30
2023-03-05T20:09:56.160Z,145.00
2023-03-05T20:14:58.415Z,83.10
2023-03-05T20:20:02.032Z,256.50
2023-03-05T20:25:08.212Z,178.30
2023-03-05T20:30:14.820Z,129.20
2023-03-05T20:35:19.822Z,114.40
2023-03-05T20:40:23.376Z,177.60
2023-03-05T20:45:26.882Z,200.00
2023-03-05T20:50:30.538Z,106.80
2023-03-05T20:55:32.560Z,200.20
2023-03-05T21:00:35.406Z,56.40
2023-03-05T21:05:37.572Z,37.50
2023-03-05T21:10:40.182Z,72.40
2023-03-05T21:15:42.654Z,49.70
2023-03-05T21:20:44.738Z,38.90
2023-03-05T21:25:46.699Z,58.20
2023-03-05T21:30:53.964Z,103.70
2023-03-05T21:35:59.275Z,38.00
2023-03-05T21:41:02.574Z,25.50
2023-03-05T21:51:22.726Z,32.00
2023-03-05T21:56:30.736Z,60.90
2023-03-05T22:01:32.733Z,38.90
2023-03-05T22:06:34.693Z,32.70
2023-03-05T22:11:37.078Z,24.80
2023-03-05T22:16:39.083Z,23.10
2023-03-05T22:21:40.932Z,19.70
2023-03-05T22:26:42.725Z,23.40
2023-03-05T22:31:45.313Z,16.40
2023-03-05T22:36:47.278Z,17.40
2023-03-05T22:41:49.055Z,15.60
2023-03-05T22:46:50.935Z,15.70
2023-03-05T22:51:52.702Z,12.00
2023-03-05T22:56:54.590Z,15.50
2023-03-05T23:01:56.868Z,15.40
2023-03-05T23:06:58.649Z,14.80
2023-03-05T23:12:00.937Z,18.10
2023-03-05T23:17:04.148Z,13.10
2023-03-05T23:22:07.764Z,17.90
2023-03-05T23:27:14.149Z,20.10
2023-03-05T23:32:16.567Z,16.90
2023-03-05T23:37:18.312Z,19.00
2023-03-05T23:42:20.083Z,17.30
2023-03-05T23:47:21.869Z,14.00
2023-03-05T23:52:23.633Z,18.40
2023-03-05T23:57:25.611Z,16.70
